sensor_id;sensor_type;location;lat;lon;timestamp;temperature;humidity
6106;DHT22;3083;51.508;7.966;2023-07-29T00:00:44;19.00;99.90
6106;DHT22;3083;51.508;7.966;2023-07-29T00:03:11;19.00;99.90
6106;DHT22;3083;51.508;7.966;2023-07-29T00:05:39;19.00;99.90
6106;DHT22;3083;51.508;7.966;2023-07-29T00:08:06;19.00;99.90
6106;DHT22;3083;51.508;7.966;2023-07-29T00:10:35;19.00;99.90
6106;DHT22;3083;51.508;7.966;2023-07-29T00:13:04;19.00;99.90
6106;DHT22;3083;51.508;7.966;2023-07-29T00:15:30;19.00;99.90
6106;DHT22;3083;51.508;7.966;2023-07-29T00:17:58;19.00;99.90
6106;DHT22;3083;51.508;7.966;2023-07-29T00:20:24;18.90;99.90
6106;DHT22;3083;51.508;7.966;2023-07-29T00:22:51;19.00;99.90
6106;DHT22;3083;51.508;7.966;2023-07-29T00:25:20;19.00;99.90
6106;DHT22;3083;51.508;7.966;2023-07-29T00:27:47;19.00;99.90
6106;DHT22;3083;51.508;7.966;2023-07-29T00:30:15;19.00;99.90
6106;DHT22;3083;51.508;7.966;2023-07-29T00:32:42;19.00;99.90
6106;DHT22;3083;51.508;7.966;2023-07-29T00:35:09;19.00;99.90
6106;DHT22;3083;51.508;7.966;2023-07-29T00:37:36;19.00;99.90
6106;DHT22;3083;51.508;7.966;2023-07-29T00:40:06;19.00;99.90
6106;DHT22;3083;51.508;7.966;2023-07-29T00:42:36;19.00;99.90
6106;DHT22;3083;51.508;7.966;2023-07-29T00:45:03;19.00;99.90
6106;DHT22;3083;51.508;7.966;2023-07-29T00:47:33;19.00;99.90
6106;DHT22;3083;51.508;7.966;2023-07-29T00:50:00;19.00;99.90
6106;DHT22;3083;51.508;7.966;2023-07-29T00:52:27;19.00;99.90
6106;DHT22;3083;51.508;7.966;2023-07-29T00:54:53;19.00;99.90
6106;DHT22;3083;51.508;7.966;2023-07-29T00:57:20;19.00;99.90
6106;DHT22;3083;51.508;7.966;2023-07-29T00:59:48;19.00;99.90
6106;DHT22;3083;51.508;7.966;2023-07-29T01:02:15;19.00;99.90
6106;DHT22;3083;51.508;7.966;2023-07-29T01:04:43;19.00;99.90
6106;DHT22;3083;51.508;7.966;2023-07-29T01:07:16;19.00;99.90
6106;DHT22;3083;51.508;7.966;2023-07-29T01:09:54;19.00;99.90
6106;DHT22;3083;51.508;7.966;2023-07-29T01:12:28;19.00;99.90
6106;DHT22;3083;51.508;7.966;2023-07-29T01:15:04;19.00;99.90
6106;DHT22;3083;51.508;7.966;2023-07-29T01:17:35;19.00;99.90
6106;DHT22;3083;51.508;7.966;2023-07-29T01:20:08;19.00;99.90
6106;DHT22;3083;51.508;7.966;2023-07-29T01:22:36;19.00;99.90
6106;DHT22;3083;51.508;7.966;2023-07-29T01:25:05;18.90;99.90
6106;DHT22;3083;51.508;7.966;2023-07-29T01:27:32;18.90;99.90
6106;DHT22;3083;51.508;7.966;2023-07-29T01:29:59;18.90;99.90
6106;DHT22;3083;51.508;7.966;2023-07-29T01:32:31;18.80;99.90
6106;DHT22;3083;51.508;7.966;2023-07-29T01:35:03;18.80;99.90
6106;DHT22;3083;51.508;7.966;2023-07-29T01:37:34;18.80;99.90
6106;DHT22;3083;51.508;7.966;2023-07-29T01:40:05;18.80;99.90
6106;DHT22;3083;51.508;7.966;2023-07-29T01:42:34;18.80;99.90
6106;DHT22;3083;51.508;7.966;2023-07-29T01:45:01;18.80;99.90
6106;DHT22;3083;51.508;7.966;2023-07-29T01:47:28;18.80;99.90
6106;DHT22;3083;51.508;7.966;2023-07-29T01:49:54;18.80;99.90
6106;DHT22;3083;51.508;7.966;2023-07-29T01:52:21;18.80;99.90
6106;DHT22;3083;51.508;7.966;2023-07-29T01:54:48;18.80;99.90
6106;DHT22;3083;51.508;7.966;2023-07-29T01:57:16;18.80;99.90
6106;DHT22;3083;51.508;7.966;2023-07-29T01:59:43;18.80;99.90
6106;DHT22;3083;51.508;7.966;2023-07-29T02:02:10;18.80;99.90
6106;DHT22;3083;51.508;7.966;2023-07-29T02:04:37;18.80;99.90
6106;DHT22;3083;51.508;7.966;2023-07-29T02:07:04;18.80;99.90
6106;DHT22;3083;51.508;7.966;2023-07-29T02:09:31;18.80;99.90
6106;DHT22;3083;51.508;7.966;2023-07-29T02:11:58;18.80;99.90
6106;DHT22;3083;51.508;7.966;2023-07-29T02:14:26;18.80;99.90
6106;DHT22;3083;51.508;7.966;2023-07-29T02:16:53;18.80;99.90
6106;DHT22;3083;51.508;7.966;2023-07-29T02:19:20;18.80;99.90
6106;DHT22;3083;51.508;7.966;2023-07-29T02:21:47;18.80;99.90
6106;DHT22;3083;51.508;7.966;2023-07-29T02:24:14;18.80;99.90
6106;DHT22;3083;51.508;7.966;2023-07-29T02:26:41;18.80;99.90
6106;DHT22;3083;51.508;7.966;2023-07-29T02:29:08;18.80;99.90
6106;DHT22;3083;51.508;7.966;2023-07-29T02:31:36;18.80;99.90
6106;DHT22;3083;51.508;7.966;2023-07-29T02:34:04;18.80;99.90
6106;DHT22;3083;51.508;7.966;2023-07-29T02:36:30;18.80;99.90
6106;DHT22;3083;51.508;7.966;2023-07-29T02:38:57;18.80;99.90
6106;DHT22;3083;51.508;7.966;2023-07-29T02:41:24;18.80;99.90
6106;DHT22;3083;51.508;7.966;2023-07-29T02:43:51;18.80;99.90
6106;DHT22;3083;51.508;7.966;2023-07-29T02:46:18;18.80;99.90
6106;DHT22;3083;51.508;7.966;2023-07-29T02:48:46;18.80;99.90
6106;DHT22;3083;51.508;7.966;2023-07-29T02:51:13;18.80;99.90
6106;DHT22;3083;51.508;7.966;2023-07-29T02:53:40;18.80;99.90
6106;DHT22;3083;51.508;7.966;2023-07-29T02:56:07;18.80;99.90
6106;DHT22;3083;51.508;7.966;2023-07-29T02:58:34;18.80;99.90
6106;DHT22;3083;51.508;7.966;2023-07-29T03:01:02;18.80;99.90
6106;DHT22;3083;51.508;7.966;2023-07-29T03:03:29;18.80;99.90
6106;DHT22;3083;51.508;7.966;2023-07-29T03:06:02;18.80;99.90
6106;DHT22;3083;51.508;7.966;2023-07-29T03:08:29;18.80;99.90
6106;DHT22;3083;51.508;7.966;2023-07-29T03:10:57;18.80;99.90
6106;DHT22;3083;51.508;7.966;2023-07-29T03:13:24;18.80;99.90
6106;DHT22;3083;51.508;7.966;2023-07-29T03:15:51;18.80;99.90
6106;DHT22;3083;51.508;7.966;2023-07-29T03:18:18;18.80;99.90
6106;DHT22;3083;51.508;7.966;2023-07-29T03:20:45;18.80;99.90
6106;DHT22;3083;51.508;7.966;2023-07-29T03:23:13;18.80;99.90
6106;DHT22;3083;51.508;7.966;2023-07-29T03:25:40;18.80;99.90
6106;DHT22;3083;51.508;7.966;2023-07-29T03:28:07;18.80;99.90
6106;DHT22;3083;51.508;7.966;2023-07-29T03:30:33;18.80;99.90
6106;DHT22;3083;51.508;7.966;2023-07-29T03:33:00;18.80;99.90
6106;DHT22;3083;51.508;7.966;2023-07-29T03:35:28;18.80;99.90
6106;DHT22;3083;51.508;7.966;2023-07-29T03:37:55;18.80;99.90
6106;DHT22;3083;51.508;7.966;2023-07-29T03:40:23;18.80;99.90
6106;DHT22;3083;51.508;7.966;2023-07-29T03:42:50;18.80;99.90
6106;DHT22;3083;51.508;7.966;2023-07-29T03:45:17;18.80;99.90
6106;DHT22;3083;51.508;7.966;2023-07-29T03:47:44;18.80;99.90
6106;DHT22;3083;51.508;7.966;2023-07-29T03:50:11;18.80;99.90
6106;DHT22;3083;51.508;7.966;2023-07-29T03:52:37;18.80;99.90
6106;DHT22;3083;51.508;7.966;2023-07-29T03:55:05;18.80;99.90
6106;DHT22;3083;51.508;7.966;2023-07-29T03:57:33;18.80;99.90
6106;DHT22;3083;51.508;7.966;2023-07-29T04:00:00;18.80;99.90
6106;DHT22;3083;51.508;7.966;2023-07-29T04:02:27;18.80;99.90
6106;DHT22;3083;51.508;7.966;2023-07-29T04:04:54;18.80;99.90
6106;DHT22;3083;51.508;7.966;2023-07-29T04:07:21;18.80;99.90
6106;DHT22;3083;51.508;7.966;2023-07-29T04:09:48;18.80;99.90
6106;DHT22;3083;51.508;7.966;2023-07-29T04:12:15;18.80;99.90
6106;DHT22;3083;51.508;7.966;2023-07-29T04:14:43;18.80;99.90
6106;DHT22;3083;51.508;7.966;2023-07-29T04:17:10;18.80;99.90
6106;DHT22;3083;51.508;7.966;2023-07-29T04:19:37;18.80;99.90
6106;DHT22;3083;51.508;7.966;2023-07-29T04:22:04;18.80;99.90
6106;DHT22;3083;51.508;7.966;2023-07-29T04:24:31;18.80;99.90
6106;DHT22;3083;51.508;7.966;2023-07-29T04:26:58;18.80;99.90
6106;DHT22;3083;51.508;7.966;2023-07-29T04:29:24;18.80;99.90
6106;DHT22;3083;51.508;7.966;2023-07-29T04:31:53;18.90;99.90
6106;DHT22;3083;51.508;7.966;2023-07-29T04:34:20;18.90;99.90
6106;DHT22;3083;51.508;7.966;2023-07-29T04:36:47;18.90;99.90
6106;DHT22;3083;51.508;7.966;2023-07-29T04:39:14;19.00;99.90
6106;DHT22;3083;51.508;7.966;2023-07-29T04:41:41;19.00;99.90
6106;DHT22;3083;51.508;7.966;2023-07-29T04:44:08;19.00;99.90
6106;DHT22;3083;51.508;7.966;2023-07-29T04:46:36;19.00;99.90
6106;DHT22;3083;51.508;7.966;2023-07-29T04:49:04;19.00;99.90
6106;DHT22;3083;51.508;7.966;2023-07-29T04:51:31;19.00;99.90
6106;DHT22;3083;51.508;7.966;2023-07-29T04:53:58;19.00;99.90
6106;DHT22;3083;51.508;7.966;2023-07-29T04:56:25;19.00;99.90
6106;DHT22;3083;51.508;7.966;2023-07-29T04:58:52;19.00;99.90
6106;DHT22;3083;51.508;7.966;2023-07-29T05:01:19;19.00;99.90
6106;DHT22;3083;51.508;7.966;2023-07-29T05:03:46;19.00;99.90
6106;DHT22;3083;51.508;7.966;2023-07-29T05:06:14;19.00;99.90
6106;DHT22;3083;51.508;7.966;2023-07-29T05:08:41;19.00;99.90
6106;DHT22;3083;51.508;7.966;2023-07-29T05:11:08;19.00;99.90
6106;DHT22;3083;51.508;7.966;2023-07-29T05:13:34;19.00;99.90
6106;DHT22;3083;51.508;7.966;2023-07-29T05:16:01;19.10;99.90
6106;DHT22;3083;51.508;7.966;2023-07-29T05:18:28;19.10;99.90
6106;DHT22;3083;51.508;7.966;2023-07-29T05:20:55;19.10;99.90
6106;DHT22;3083;51.508;7.966;2023-07-29T05:23:23;19.10;99.90
6106;DHT22;3083;51.508;7.966;2023-07-29T05:25:50;19.10;99.90
6106;DHT22;3083;51.508;7.966;2023-07-29T05:28:17;19.10;99.90
6106;DHT22;3083;51.508;7.966;2023-07-29T05:30:44;19.10;99.90
6106;DHT22;3083;51.508;7.966;2023-07-29T05:33:11;19.10;99.90
6106;DHT22;3083;51.508;7.966;2023-07-29T05:35:38;19.00;99.90
6106;DHT22;3083;51.508;7.966;2023-07-29T05:38:05;19.00;99.90
6106;DHT22;3083;51.508;7.966;2023-07-29T05:40:35;19.10;99.90
6106;DHT22;3083;51.508;7.966;2023-07-29T05:43:02;19.10;99.90
6106;DHT22;3083;51.508;7.966;2023-07-29T05:45:29;19.20;99.90
6106;DHT22;3083;51.508;7.966;2023-07-29T05:47:57;19.20;99.90
6106;DHT22;3083;51.508;7.966;2023-07-29T05:50:23;19.20;99.90
6106;DHT22;3083;51.508;7.966;2023-07-29T05:52:50;19.30;99.90
6106;DHT22;3083;51.508;7.966;2023-07-29T05:55:17;19.30;99.90
6106;DHT22;3083;51.508;7.966;2023-07-29T05:57:45;19.30;99.90
6106;DHT22;3083;51.508;7.966;2023-07-29T06:00:13;19.40;99.90
6106;DHT22;3083;51.508;7.966;2023-07-29T06:02:40;19.40;99.90
6106;DHT22;3083;51.508;7.966;2023-07-29T06:05:07;19.40;99.90
6106;DHT22;3083;51.508;7.966;2023-07-29T06:07:34;19.50;99.90
6106;DHT22;3083;51.508;7.966;2023-07-29T06:10:01;19.60;99.90
6106;DHT22;3083;51.508;7.966;2023-07-29T06:12:28;19.60;99.90
6106;DHT22;3083;51.508;7.966;2023-07-29T06:14:56;19.70;99.90
6106;DHT22;3083;51.508;7.966;2023-07-29T06:17:23;19.80;99.90
6106;DHT22;3083;51.508;7.966;2023-07-29T06:19:49;19.90;99.90
6106;DHT22;3083;51.508;7.966;2023-07-29T06:22:16;19.90;99.90
6106;DHT22;3083;51.508;7.966;2023-07-29T06:24:43;20.00;99.90
6106;DHT22;3083;51.508;7.966;2023-07-29T06:27:10;20.00;99.90
6106;DHT22;3083;51.508;7.966;2023-07-29T06:29:37;20.10;99.90
6106;DHT22;3083;51.508;7.966;2023-07-29T06:32:06;20.00;99.90
6106;DHT22;3083;51.508;7.966;2023-07-29T06:34:33;20.00;99.90
6106;DHT22;3083;51.508;7.966;2023-07-29T06:37:00;20.00;99.90
6106;DHT22;3083;51.508;7.966;2023-07-29T06:39:26;19.90;99.90
6106;DHT22;3083;51.508;7.966;2023-07-29T06:41:53;19.90;99.90
6106;DHT22;3083;51.508;7.966;2023-07-29T06:44:20;19.80;99.90
6106;DHT22;3083;51.508;7.966;2023-07-29T06:46:47;19.80;99.90
6106;DHT22;3083;51.508;7.966;2023-07-29T06:49:15;19.70;99.90
6106;DHT22;3083;51.508;7.966;2023-07-29T06:51:42;19.60;99.90
6106;DHT22;3083;51.508;7.966;2023-07-29T06:54:09;19.60;99.90
6106;DHT22;3083;51.508;7.966;2023-07-29T06:56:36;19.50;99.90
6106;DHT22;3083;51.508;7.966;2023-07-29T06:59:02;19.50;99.90
6106;DHT22;3083;51.508;7.966;2023-07-29T07:01:29;19.50;99.90
6106;DHT22;3083;51.508;7.966;2023-07-29T07:03:56;19.50;99.90
6106;DHT22;3083;51.508;7.966;2023-07-29T07:06:25;19.50;99.90
6106;DHT22;3083;51.508;7.966;2023-07-29T07:08:52;19.60;99.90
6106;DHT22;3083;51.508;7.966;2023-07-29T07:11:19;19.60;99.90
6106;DHT22;3083;51.508;7.966;2023-07-29T07:13:46;19.50;99.90
6106;DHT22;3083;51.508;7.966;2023-07-29T07:16:13;19.50;99.90
6106;DHT22;3083;51.508;7.966;2023-07-29T07:18:39;19.50;99.90
6106;DHT22;3083;51.508;7.966;2023-07-29T07:21:06;19.60;99.90
6106;DHT22;3083;51.508;7.966;2023-07-29T07:23:34;19.60;99.90
6106;DHT22;3083;51.508;7.966;2023-07-29T07:26:01;19.70;99.90
6106;DHT22;3083;51.508;7.966;2023-07-29T07:28:28;19.70;99.90
6106;DHT22;3083;51.508;7.966;2023-07-29T07:30:55;19.70;99.90
6106;DHT22;3083;51.508;7.966;2023-07-29T07:33:22;19.70;99.90
6106;DHT22;3083;51.508;7.966;2023-07-29T07:35:49;19.80;99.90
6106;DHT22;3083;51.508;7.966;2023-07-29T07:38:16;19.80;99.90
6106;DHT22;3083;51.508;7.966;2023-07-29T07:40:52;19.70;99.90
6106;DHT22;3083;51.508;7.966;2023-07-29T07:43:20;19.80;99.90
6106;DHT22;3083;51.508;7.966;2023-07-29T07:45:47;19.80;99.90
6106;DHT22;3083;51.508;7.966;2023-07-29T07:48:14;19.80;99.90
6106;DHT22;3083;51.508;7.966;2023-07-29T07:50:42;19.80;99.90
6106;DHT22;3083;51.508;7.966;2023-07-29T07:53:09;19.90;99.90
6106;DHT22;3083;51.508;7.966;2023-07-29T07:55:36;19.90;99.90
6106;DHT22;3083;51.508;7.966;2023-07-29T07:58:04;20.00;99.90
6106;DHT22;3083;51.508;7.966;2023-07-29T08:00:31;20.00;99.90
6106;DHT22;3083;51.508;7.966;2023-07-29T08:02:58;20.10;99.90
6106;DHT22;3083;51.508;7.966;2023-07-29T08:05:25;20.10;99.90
6106;DHT22;3083;51.508;7.966;2023-07-29T08:07:51;20.20;99.90
6106;DHT22;3083;51.508;7.966;2023-07-29T08:10:18;20.30;99.90
6106;DHT22;3083;51.508;7.966;2023-07-29T08:12:45;20.40;99.90
6106;DHT22;3083;51.508;7.966;2023-07-29T08:15:13;20.60;99.90
6106;DHT22;3083;51.508;7.966;2023-07-29T08:17:40;21.10;99.90
6106;DHT22;3083;51.508;7.966;2023-07-29T08:20:08;21.40;99.90
6106;DHT22;3083;51.508;7.966;2023-07-29T08:22:35;21.80;99.90
6106;DHT22;3083;51.508;7.966;2023-07-29T08:25:03;21.90;99.90
6106;DHT22;3083;51.508;7.966;2023-07-29T08:27:29;22.10;99.90
6106;DHT22;3083;51.508;7.966;2023-07-29T08:29:56;22.40;99.90
6106;DHT22;3083;51.508;7.966;2023-07-29T08:32:24;22.70;99.90
6106;DHT22;3083;51.508;7.966;2023-07-29T08:34:51;22.90;99.90
6106;DHT22;3083;51.508;7.966;2023-07-29T08:37:18;23.20;99.90
6106;DHT22;3083;51.508;7.966;2023-07-29T08:39:45;23.30;99.90
6106;DHT22;3083;51.508;7.966;2023-07-29T08:42:12;23.40;99.90
6106;DHT22;3083;51.508;7.966;2023-07-29T08:44:41;23.60;99.90
6106;DHT22;3083;51.508;7.966;2023-07-29T08:47:09;23.70;99.90
6106;DHT22;3083;51.508;7.966;2023-07-29T08:49:37;23.70;99.90
6106;DHT22;3083;51.508;7.966;2023-07-29T08:52:05;23.70;99.90
6106;DHT22;3083;51.508;7.966;2023-07-29T08:54:33;23.90;99.90
6106;DHT22;3083;51.508;7.966;2023-07-29T08:57:00;24.10;99.90
6106;DHT22;3083;51.508;7.966;2023-07-29T08:59:28;24.20;99.90
6106;DHT22;3083;51.508;7.966;2023-07-29T09:01:56;24.50;99.90
6106;DHT22;3083;51.508;7.966;2023-07-29T09:04:24;24.70;99.90
6106;DHT22;3083;51.508;7.966;2023-07-29T09:06:54;24.80;99.90
6106;DHT22;3083;51.508;7.966;2023-07-29T09:09:22;24.90;99.90
6106;DHT22;3083;51.508;7.966;2023-07-29T09:11:49;24.70;99.90
6106;DHT22;3083;51.508;7.966;2023-07-29T09:14:16;24.60;99.90
6106;DHT22;3083;51.508;7.966;2023-07-29T09:16:43;24.60;99.90
6106;DHT22;3083;51.508;7.966;2023-07-29T09:19:10;24.80;99.90
6106;DHT22;3083;51.508;7.966;2023-07-29T09:21:39;25.00;99.90
6106;DHT22;3083;51.508;7.966;2023-07-29T09:24:08;25.20;99.90
6106;DHT22;3083;51.508;7.966;2023-07-29T09:26:35;25.40;99.90
6106;DHT22;3083;51.508;7.966;2023-07-29T09:29:02;25.70;99.90
6106;DHT22;3083;51.508;7.966;2023-07-29T09:31:30;25.80;99.90
6106;DHT22;3083;51.508;7.966;2023-07-29T09:33:57;25.50;99.90
6106;DHT22;3083;51.508;7.966;2023-07-29T09:36:25;25.30;99.90
6106;DHT22;3083;51.508;7.966;2023-07-29T09:38:55;25.40;99.90
6106;DHT22;3083;51.508;7.966;2023-07-29T09:41:25;25.40;99.90
6106;DHT22;3083;51.508;7.966;2023-07-29T09:43:59;25.60;99.90
6106;DHT22;3083;51.508;7.966;2023-07-29T09:46:34;25.70;99.90
6106;DHT22;3083;51.508;7.966;2023-07-29T09:49:02;25.80;99.90
6106;DHT22;3083;51.508;7.966;2023-07-29T09:51:29;25.80;99.90
6106;DHT22;3083;51.508;7.966;2023-07-29T09:53:56;25.60;99.90
6106;DHT22;3083;51.508;7.966;2023-07-29T09:56:26;25.40;99.90
6106;DHT22;3083;51.508;7.966;2023-07-29T09:58:55;25.40;99.90
6106;DHT22;3083;51.508;7.966;2023-07-29T10:01:23;25.50;99.90
6106;DHT22;3083;51.508;7.966;2023-07-29T10:03:50;25.60;99.90
6106;DHT22;3083;51.508;7.966;2023-07-29T10:06:17;25.60;99.90
6106;DHT22;3083;51.508;7.966;2023-07-29T10:08:45;25.50;99.90
6106;DHT22;3083;51.508;7.966;2023-07-29T10:11:14;25.30;99.90
6106;DHT22;3083;51.508;7.966;2023-07-29T10:13:48;25.40;99.90
6106;DHT22;3083;51.508;7.966;2023-07-29T10:16:15;25.60;99.90
6106;DHT22;3083;51.508;7.966;2023-07-29T10:18:42;25.70;99.90
6106;DHT22;3083;51.508;7.966;2023-07-29T10:21:10;25.80;99.90
6106;DHT22;3083;51.508;7.966;2023-07-29T10:23:42;25.80;99.90
6106;DHT22;3083;51.508;7.966;2023-07-29T10:26:10;25.70;99.90
6106;DHT22;3083;51.508;7.966;2023-07-29T10:28:40;25.70;99.90
6106;DHT22;3083;51.508;7.966;2023-07-29T10:31:09;25.70;99.90
6106;DHT22;3083;51.508;7.966;2023-07-29T10:33:37;25.80;99.90
6106;DHT22;3083;51.508;7.966;2023-07-29T10:36:05;25.70;99.90
6106;DHT22;3083;51.508;7.966;2023-07-29T10:38:32;25.70;99.90
6106;DHT22;3083;51.508;7.966;2023-07-29T10:40:59;25.70;99.90
6106;DHT22;3083;51.508;7.966;2023-07-29T10:43:28;25.50;99.90
6106;DHT22;3083;51.508;7.966;2023-07-29T10:45:58;25.40;99.90
6106;DHT22;3083;51.508;7.966;2023-07-29T10:48:43;25.40;99.90
6106;DHT22;3083;51.508;7.966;2023-07-29T10:51:26;25.30;99.90
6106;DHT22;3083;51.508;7.966;2023-07-29T10:53:56;25.30;99.90
6106;DHT22;3083;51.508;7.966;2023-07-29T10:56:31;25.20;99.90
6106;DHT22;3083;51.508;7.966;2023-07-29T10:59:01;25.30;99.90
6106;DHT22;3083;51.508;7.966;2023-07-29T11:01:30;25.40;99.90
6106;DHT22;3083;51.508;7.966;2023-07-29T11:04:25;25.70;99.90
6106;DHT22;3083;51.508;7.966;2023-07-29T11:07:23;26.10;99.90
6106;DHT22;3083;51.508;7.966;2023-07-29T11:10:00;26.40;99.90
6106;DHT22;3083;51.508;7.966;2023-07-29T11:12:42;26.40;99.90
6106;DHT22;3083;51.508;7.966;2023-07-29T11:15:22;26.20;99.90
6106;DHT22;3083;51.508;7.966;2023-07-29T11:17:51;25.90;99.90
6106;DHT22;3083;51.508;7.966;2023-07-29T11:20:20;25.60;99.90
6106;DHT22;3083;51.508;7.966;2023-07-29T11:22:48;25.20;99.90
6106;DHT22;3083;51.508;7.966;2023-07-29T11:25:16;24.90;99.90
6106;DHT22;3083;51.508;7.966;2023-07-29T11:27:44;24.70;99.90
6106;DHT22;3083;51.508;7.966;2023-07-29T11:30:13;24.50;99.90
6106;DHT22;3083;51.508;7.966;2023-07-29T11:32:41;24.30;99.90
6106;DHT22;3083;51.508;7.966;2023-07-29T11:35:10;24.10;99.90
6106;DHT22;3083;51.508;7.966;2023-07-29T11:37:40;23.90;99.90
6106;DHT22;3083;51.508;7.966;2023-07-29T11:40:07;24.00;99.90
6106;DHT22;3083;51.508;7.966;2023-07-29T11:42:36;24.30;99.90
6106;DHT22;3083;51.508;7.966;2023-07-29T11:45:04;24.50;99.90
6106;DHT22;3083;51.508;7.966;2023-07-29T11:47:32;24.60;99.90
6106;DHT22;3083;51.508;7.966;2023-07-29T11:50:03;24.70;99.90
6106;DHT22;3083;51.508;7.966;2023-07-29T11:52:31;24.70;99.90
6106;DHT22;3083;51.508;7.966;2023-07-29T11:55:00;24.90;99.90
6106;DHT22;3083;51.508;7.966;2023-07-29T11:57:27;25.20;99.90
6106;DHT22;3083;51.508;7.966;2023-07-29T11:59:54;25.30;99.90
6106;DHT22;3083;51.508;7.966;2023-07-29T12:02:23;25.50;99.90
6106;DHT22;3083;51.508;7.966;2023-07-29T12:04:50;25.70;99.90
6106;DHT22;3083;51.508;7.966;2023-07-29T12:07:18;25.80;99.90
6106;DHT22;3083;51.508;7.966;2023-07-29T12:09:46;25.90;99.90
6106;DHT22;3083;51.508;7.966;2023-07-29T12:12:15;25.80;99.90
6106;DHT22;3083;51.508;7.966;2023-07-29T12:14:44;25.70;99.90
6106;DHT22;3083;51.508;7.966;2023-07-29T12:17:12;25.60;99.90
6106;DHT22;3083;51.508;7.966;2023-07-29T12:19:40;25.30;99.90
6106;DHT22;3083;51.508;7.966;2023-07-29T12:22:09;25.30;99.90
6106;DHT22;3083;51.508;7.966;2023-07-29T12:24:37;25.30;99.90
6106;DHT22;3083;51.508;7.966;2023-07-29T12:27:05;25.30;99.90
6106;DHT22;3083;51.508;7.966;2023-07-29T12:29:40;25.30;99.90
6106;DHT22;3083;51.508;7.966;2023-07-29T12:32:07;25.20;99.90
6106;DHT22;3083;51.508;7.966;2023-07-29T12:34:35;25.00;99.90
6106;DHT22;3083;51.508;7.966;2023-07-29T12:37:04;24.80;99.90
6106;DHT22;3083;51.508;7.966;2023-07-29T12:39:33;24.80;99.90
6106;DHT22;3083;51.508;7.966;2023-07-29T12:42:02;24.90;99.90
6106;DHT22;3083;51.508;7.966;2023-07-29T12:44:30;25.00;99.90
6106;DHT22;3083;51.508;7.966;2023-07-29T12:47:01;25.00;99.90
6106;DHT22;3083;51.508;7.966;2023-07-29T12:49:29;25.00;99.90
6106;DHT22;3083;51.508;7.966;2023-07-29T12:51:56;24.90;99.90
6106;DHT22;3083;51.508;7.966;2023-07-29T12:54:23;24.90;99.90
6106;DHT22;3083;51.508;7.966;2023-07-29T12:56:50;25.10;99.90
6106;DHT22;3083;51.508;7.966;2023-07-29T12:59:17;25.40;99.90
6106;DHT22;3083;51.508;7.966;2023-07-29T13:01:44;25.60;99.90
6106;DHT22;3083;51.508;7.966;2023-07-29T13:04:12;25.60;99.90
6106;DHT22;3083;51.508;7.966;2023-07-29T13:06:40;25.50;99.90
6106;DHT22;3083;51.508;7.966;2023-07-29T13:09:06;25.40;99.90
6106;DHT22;3083;51.508;7.966;2023-07-29T13:11:34;25.30;99.90
6106;DHT22;3083;51.508;7.966;2023-07-29T13:14:00;25.10;99.90
6106;DHT22;3083;51.508;7.966;2023-07-29T13:16:27;25.10;99.90
6106;DHT22;3083;51.508;7.966;2023-07-29T13:18:54;25.00;99.90
6106;DHT22;3083;51.508;7.966;2023-07-29T13:21:23;25.00;99.90
6106;DHT22;3083;51.508;7.966;2023-07-29T13:23:50;25.20;99.90
6106;DHT22;3083;51.508;7.966;2023-07-29T13:26:16;25.30;99.90
6106;DHT22;3083;51.508;7.966;2023-07-29T13:28:43;25.30;99.90
6106;DHT22;3083;51.508;7.966;2023-07-29T13:31:10;25.10;99.90
6106;DHT22;3083;51.508;7.966;2023-07-29T13:33:38;25.20;99.90
6106;DHT22;3083;51.508;7.966;2023-07-29T13:36:05;25.30;99.90
6106;DHT22;3083;51.508;7.966;2023-07-29T13:38:35;25.40;99.90
6106;DHT22;3083;51.508;7.966;2023-07-29T13:41:02;25.40;99.90
6106;DHT22;3083;51.508;7.966;2023-07-29T13:43:29;25.30;99.90
6106;DHT22;3083;51.508;7.966;2023-07-29T13:45:55;25.30;99.90
6106;DHT22;3083;51.508;7.966;2023-07-29T13:48:22;25.30;99.90
6106;DHT22;3083;51.508;7.966;2023-07-29T13:50:49;25.40;99.90
6106;DHT22;3083;51.508;7.966;2023-07-29T13:53:16;25.40;99.90
6106;DHT22;3083;51.508;7.966;2023-07-29T13:55:45;25.40;99.90
6106;DHT22;3083;51.508;7.966;2023-07-29T13:58:11;25.50;99.90
6106;DHT22;3083;51.508;7.966;2023-07-29T14:00:38;25.50;99.90
6106;DHT22;3083;51.508;7.966;2023-07-29T14:03:05;25.50;99.90
6106;DHT22;3083;51.508;7.966;2023-07-29T14:05:32;25.40;99.90
6106;DHT22;3083;51.508;7.966;2023-07-29T14:07:59;25.30;99.90
6106;DHT22;3083;51.508;7.966;2023-07-29T14:10:26;25.20;99.90
6106;DHT22;3083;51.508;7.966;2023-07-29T14:12:54;25.10;99.90
6106;DHT22;3083;51.508;7.966;2023-07-29T14:15:21;25.10;99.90
6106;DHT22;3083;51.508;7.966;2023-07-29T14:17:48;24.90;99.90
6106;DHT22;3083;51.508;7.966;2023-07-29T14:20:15;24.80;99.90
6106;DHT22;3083;51.508;7.966;2023-07-29T14:22:42;24.70;99.90
6106;DHT22;3083;51.508;7.966;2023-07-29T14:25:09;24.70;99.90
6106;DHT22;3083;51.508;7.966;2023-07-29T14:27:37;24.60;99.90
6106;DHT22;3083;51.508;7.966;2023-07-29T14:30:06;24.50;99.90
6106;DHT22;3083;51.508;7.966;2023-07-29T14:32:33;24.40;99.90
6106;DHT22;3083;51.508;7.966;2023-07-29T14:35:00;24.30;99.90
6106;DHT22;3083;51.508;7.966;2023-07-29T14:37:29;24.20;99.90
6106;DHT22;3083;51.508;7.966;2023-07-29T14:39:56;24.10;99.90
6106;DHT22;3083;51.508;7.966;2023-07-29T14:42:23;23.90;99.90
6106;DHT22;3083;51.508;7.966;2023-07-29T14:44:49;23.80;99.90
6106;DHT22;3083;51.508;7.966;2023-07-29T14:47:18;23.60;99.90
6106;DHT22;3083;51.508;7.966;2023-07-29T14:49:45;23.40;99.90
6106;DHT22;3083;51.508;7.966;2023-07-29T14:52:12;23.30;99.90
6106;DHT22;3083;51.508;7.966;2023-07-29T14:54:38;23.20;99.90
6106;DHT22;3083;51.508;7.966;2023-07-29T14:57:07;23.10;99.90
6106;DHT22;3083;51.508;7.966;2023-07-29T14:59:33;23.10;99.90
6106;DHT22;3083;51.508;7.966;2023-07-29T15:02:00;22.90;99.90
6106;DHT22;3083;51.508;7.966;2023-07-29T15:04:28;22.80;99.90
6106;DHT22;3083;51.508;7.966;2023-07-29T15:06:55;22.70;99.90
6106;DHT22;3083;51.508;7.966;2023-07-29T15:09:23;22.60;99.90
6106;DHT22;3083;51.508;7.966;2023-07-29T15:11:50;22.40;99.90
6106;DHT22;3083;51.508;7.966;2023-07-29T15:14:17;22.20;99.90
6106;DHT22;3083;51.508;7.966;2023-07-29T15:16:44;22.10;99.90
6106;DHT22;3083;51.508;7.966;2023-07-29T15:19:11;21.90;99.90
6106;DHT22;3083;51.508;7.966;2023-07-29T15:21:40;21.80;99.90
6106;DHT22;3083;51.508;7.966;2023-07-29T15:24:07;21.70;99.90
6106;DHT22;3083;51.508;7.966;2023-07-29T15:26:34;21.50;99.90
6106;DHT22;3083;51.508;7.966;2023-07-29T15:29:01;21.40;99.90
6106;DHT22;3083;51.508;7.966;2023-07-29T15:31:28;21.10;99.90
6106;DHT22;3083;51.508;7.966;2023-07-29T15:33:55;20.70;99.90
6106;DHT22;3083;51.508;7.966;2023-07-29T15:36:22;20.40;99.90
6106;DHT22;3083;51.508;7.966;2023-07-29T15:38:50;20.10;99.90
6106;DHT22;3083;51.508;7.966;2023-07-29T15:41:17;19.80;99.90
6106;DHT22;3083;51.508;7.966;2023-07-29T15:43:44;19.50;99.90
6106;DHT22;3083;51.508;7.966;2023-07-29T15:46:11;19.50;99.90
6106;DHT22;3083;51.508;7.966;2023-07-29T15:48:37;19.60;99.90
6106;DHT22;3083;51.508;7.966;2023-07-29T15:51:04;19.70;99.90
6106;DHT22;3083;51.508;7.966;2023-07-29T15:53:31;19.70;99.90
6106;DHT22;3083;51.508;7.966;2023-07-29T15:55:59;19.80;99.90
6106;DHT22;3083;51.508;7.966;2023-07-29T15:58:26;19.90;99.90
6106;DHT22;3083;51.508;7.966;2023-07-29T16:00:53;20.00;99.90
6106;DHT22;3083;51.508;7.966;2023-07-29T16:03:20;20.10;99.90
6106;DHT22;3083;51.508;7.966;2023-07-29T16:05:48;20.20;99.90